Mesa.AZweather.com - Mesa, AZ
   Red Mountain Frwy and University Dr., El 1518 ft.
      --- Saturday  August 27, 2022 ---
 
 High Temperature ..  103F at 15:03
 Low Temperature ...  82F at 07:04
 
 High Humidity .....  53% at 23:58
 Low Humidity ......  25% at 15:05
 
 High Barometer ....  29.88 at 07:57
 Low Barometer .....  29.73 at 15:15
 
 High Dew Point ....  66F at 12:15
 Low Dew Point .....  57F at 00:25
 
 Rainfall Total ....  0.01 in.
 
 High Wind Speed ...  ---
                     
 
 Time   Temp  Humi  Rain     Baro  DewPt  Wind
00:00,  87F, 37%, 0.00 in, 29.85, 58F, ---
00:30,  86F, 38%, 0.00 in, 29.84, 57F, ---
01:00,  85F, 40%, 0.00 in, 29.83, 57F, ---
01:30,  85F, 43%, 0.00 in, 29.83, 59F, ---
02:00,  85F, 44%, 0.00 in, 29.83, 60F, ---
02:30,  85F, 42%, 0.00 in, 29.83, 59F, ---
03:00,  85F, 41%, 0.00 in, 29.85, 58F, ---
03:30,  85F, 41%, 0.00 in, 29.84, 58F, ---
04:00,  85F, 41%, 0.00 in, 29.84, 58F, ---
04:30,  84F, 43%, 0.00 in, 29.84, 59F, ---
05:00,  84F, 44%, 0.00 in, 29.85, 60F, ---
05:30,  83F, 44%, 0.00 in, 29.84, 58F, ---
06:00,  83F, 46%, 0.00 in, 29.85, 60F, ---
06:30,  83F, 47%, 0.00 in, 29.85, 60F, ---
07:00,  83F, 47%, 0.00 in, 29.86, 60F, ---
07:30,  84F, 45%, 0.00 in, 29.86, 61F, ---
08:00,  86F, 44%, 0.00 in, 29.87, 62F, ---
08:30,  87F, 43%, 0.00 in, 29.87, 63F, ---
09:00,  89F, 41%, 0.00 in, 29.87, 63F, ---
09:30,  90F, 39%, 0.00 in, 29.88, 61F, ---
10:00,  92F, 38%, 0.00 in, 29.87, 62F, ---
10:30,  95F, 34%, 0.00 in, 29.87, 62F, ---
11:00,  95F, 32%, 0.00 in, 29.87, 61F, ---
11:30,  96F, 30%, 0.00 in, 29.86, 60F, ---
12:00,  98F, 30%, 0.00 in, 29.85, 62F, ---
12:30,  93F, 36%, 0.01 in, 29.83, 62F, ---
13:00,  93F, 37%, 0.01 in, 29.81, 63F, ---
13:30,  98F, 29%, 0.01 in, 29.79, 61F, ---
14:00,  100F, 28%, 0.01 in, 29.78, 61F, ---
14:30,  101F, 27%, 0.01 in, 29.77, 60F, ---
15:00,  102F, 26%, 0.01 in, 29.74, 61F, ---
15:30,  103F, 25%, 0.01 in, 29.73, 60F, ---
16:00,  100F, 28%, 0.01 in, 29.74, 61F, ---
16:30,  97F, 31%, 0.01 in, 29.75, 61F, ---
17:00,  96F, 32%, 0.01 in, 29.75, 62F, ---
17:30,  96F, 31%, 0.01 in, 29.74, 61F, ---
18:00,  94F, 32%, 0.01 in, 29.74, 59F, ---
18:30,  94F, 33%, 0.01 in, 29.73, 60F, ---
19:00,  93F, 35%, 0.01 in, 29.74, 61F, ---
19:30,  90F, 37%, 0.01 in, 29.75, 60F, ---
20:00,  89F, 39%, 0.01 in, 29.76, 61F, ---
20:30,  89F, 39%, 0.01 in, 29.76, 61F, ---
21:00,  87F, 39%, 0.01 in, 29.77, 60F, ---
21:30,  87F, 41%, 0.01 in, 29.78, 61F, ---
22:00,  85F, 43%, 0.01 in, 29.78, 59F, ---
22:30,  84F, 45%, 0.01 in, 29.78, 61F, ---
23:00,  83F, 49%, 0.01 in, 29.80, 61F, ---
23:30,  84F, 51%, 0.01 in, 29.80, 64F, ---
23:59,  83F, 53%, 0.01 in, 29.80, 64F, ---